sensor_id;sensor_type;location;lat;lon;timestamp;P1;durP1;ratioP1;P2;durP2;ratioP2
17239;SDS011;9943;54.378;18.604;2022-08-20T00:00:54;10.05;;;8.15;;
17239;SDS011;9943;54.378;18.604;2022-08-20T00:03:23;9.75;;;8.70;;
17239;SDS011;9943;54.378;18.604;2022-08-20T00:05:56;11.50;;;8.60;;
17239;SDS011;9943;54.378;18.604;2022-08-20T00:08:28;8.68;;;7.75;;
17239;SDS011;9943;54.378;18.604;2022-08-20T00:11:03;12.30;;;7.95;;
17239;SDS011;9943;54.378;18.604;2022-08-20T00:13:35;9.82;;;7.75;;
17239;SDS011;9943;54.378;18.604;2022-08-20T00:16:05;9.55;;;7.63;;
17239;SDS011;9943;54.378;18.604;2022-08-20T00:18:36;12.85;;;8.07;;
17239;SDS011;9943;54.378;18.604;2022-08-20T00:21:09;10.60;;;8.45;;
17239;SDS011;9943;54.378;18.604;2022-08-20T00:23:39;9.57;;;7.78;;
17239;SDS011;9943;54.378;18.604;2022-08-20T00:26:10;12.07;;;8.52;;
17239;SDS011;9943;54.378;18.604;2022-08-20T00:28:38;11.77;;;8.80;;
17239;SDS011;9943;54.378;18.604;2022-08-20T00:31:08;14.88;;;8.25;;
17239;SDS011;9943;54.378;18.604;2022-08-20T00:33:39;9.38;;;7.65;;
17239;SDS011;9943;54.378;18.604;2022-08-20T00:36:11;13.98;;;8.07;;
17239;SDS011;9943;54.378;18.604;2022-08-20T00:38:43;15.13;;;8.77;;
17239;SDS011;9943;54.378;18.604;2022-08-20T00:41:14;13.00;;;8.43;;
17239;SDS011;9943;54.378;18.604;2022-08-20T00:43:44;9.25;;;8.38;;
17239;SDS011;9943;54.378;18.604;2022-08-20T00:46:14;10.93;;;7.82;;
17239;SDS011;9943;54.378;18.604;2022-08-20T00:48:46;9.70;;;7.85;;
17239;SDS011;9943;54.378;18.604;2022-08-20T00:51:26;10.60;;;8.52;;
17239;SDS011;9943;54.378;18.604;2022-08-20T00:54:04;9.93;;;8.63;;
17239;SDS011;9943;54.378;18.604;2022-08-20T00:56:37;9.73;;;8.20;;
17239;SDS011;9943;54.378;18.604;2022-08-20T00:59:14;11.73;;;8.60;;
17239;SDS011;9943;54.378;18.604;2022-08-20T01:01:43;12.20;;;9.45;;
17239;SDS011;9943;54.378;18.604;2022-08-20T01:04:12;9.40;;;8.30;;
17239;SDS011;9943;54.378;18.604;2022-08-20T01:06:43;10.85;;;8.82;;
17239;SDS011;9943;54.378;18.604;2022-08-20T01:09:13;11.23;;;9.00;;
17239;SDS011;9943;54.378;18.604;2022-08-20T01:11:41;14.93;;;10.30;;
17239;SDS011;9943;54.378;18.604;2022-08-20T01:14:12;12.82;;;8.70;;
17239;SDS011;9943;54.378;18.604;2022-08-20T01:17:03;12.52;;;10.68;;
17239;SDS011;9943;54.378;18.604;2022-08-20T01:19:39;14.85;;;10.98;;
17239;SDS011;9943;54.378;18.604;2022-08-20T01:22:11;13.68;;;12.25;;
17239;SDS011;9943;54.378;18.604;2022-08-20T01:24:56;15.20;;;13.35;;
17239;SDS011;9943;54.378;18.604;2022-08-20T01:27:37;15.68;;;13.10;;
17239;SDS011;9943;54.378;18.604;2022-08-20T01:30:07;19.42;;;13.30;;
17239;SDS011;9943;54.378;18.604;2022-08-20T01:32:40;16.13;;;12.75;;
17239;SDS011;9943;54.378;18.604;2022-08-20T01:35:10;15.32;;;13.45;;
17239;SDS011;9943;54.378;18.604;2022-08-20T01:37:41;14.88;;;13.18;;
17239;SDS011;9943;54.378;18.604;2022-08-20T01:40:12;18.55;;;14.57;;
17239;SDS011;9943;54.378;18.604;2022-08-20T01:42:56;15.77;;;14.07;;
17239;SDS011;9943;54.378;18.604;2022-08-20T01:45:27;16.15;;;13.93;;
17239;SDS011;9943;54.378;18.604;2022-08-20T01:47:57;15.77;;;14.13;;
17239;SDS011;9943;54.378;18.604;2022-08-20T01:50:26;18.50;;;16.70;;
17239;SDS011;9943;54.378;18.604;2022-08-20T01:52:58;19.35;;;15.68;;
17239;SDS011;9943;54.378;18.604;2022-08-20T01:55:30;17.77;;;15.75;;
17239;SDS011;9943;54.378;18.604;2022-08-20T01:58:00;18.88;;;16.92;;
17239;SDS011;9943;54.378;18.604;2022-08-20T02:00:29;18.42;;;16.27;;
17239;SDS011;9943;54.378;18.604;2022-08-20T02:03:00;17.58;;;15.68;;
17239;SDS011;9943;54.378;18.604;2022-08-20T02:05:29;17.80;;;16.00;;
17239;SDS011;9943;54.378;18.604;2022-08-20T02:07:58;18.65;;;15.52;;
17239;SDS011;9943;54.378;18.604;2022-08-20T02:10:27;20.00;;;17.45;;
17239;SDS011;9943;54.378;18.604;2022-08-20T02:13:15;21.35;;;17.25;;
17239;SDS011;9943;54.378;18.604;2022-08-20T02:15:43;19.48;;;17.48;;
17239;SDS011;9943;54.378;18.604;2022-08-20T02:18:18;21.58;;;17.60;;
17239;SDS011;9943;54.378;18.604;2022-08-20T02:20:47;19.20;;;17.30;;
17239;SDS011;9943;54.378;18.604;2022-08-20T02:23:18;20.75;;;17.20;;
17239;SDS011;9943;54.378;18.604;2022-08-20T02:25:46;20.98;;;18.83;;
17239;SDS011;9943;54.378;18.604;2022-08-20T02:28:18;22.42;;;20.10;;
17239;SDS011;9943;54.378;18.604;2022-08-20T02:30:49;21.77;;;19.55;;
17239;SDS011;9943;54.378;18.604;2022-08-20T02:33:20;21.90;;;19.60;;
17239;SDS011;9943;54.378;18.604;2022-08-20T02:35:50;22.80;;;19.73;;
17239;SDS011;9943;54.378;18.604;2022-08-20T02:38:35;21.80;;;19.08;;
17239;SDS011;9943;54.378;18.604;2022-08-20T02:41:05;21.65;;;19.33;;
17239;SDS011;9943;54.378;18.604;2022-08-20T02:43:36;25.10;;;20.33;;
17239;SDS011;9943;54.378;18.604;2022-08-20T02:46:04;22.83;;;20.60;;
17239;SDS011;9943;54.378;18.604;2022-08-20T02:48:34;22.55;;;20.33;;
17239;SDS011;9943;54.378;18.604;2022-08-20T02:51:14;23.00;;;20.65;;
17239;SDS011;9943;54.378;18.604;2022-08-20T02:53:46;23.67;;;21.08;;
17239;SDS011;9943;54.378;18.604;2022-08-20T02:56:17;23.42;;;20.98;;
17239;SDS011;9943;54.378;18.604;2022-08-20T02:58:47;22.90;;;20.70;;
17239;SDS011;9943;54.378;18.604;2022-08-20T03:01:17;23.92;;;21.33;;
17239;SDS011;9943;54.378;18.604;2022-08-20T03:03:47;24.13;;;21.63;;
17239;SDS011;9943;54.378;18.604;2022-08-20T03:06:18;23.40;;;21.00;;
17239;SDS011;9943;54.378;18.604;2022-08-20T03:08:52;17.67;;;15.88;;
17239;SDS011;9943;54.378;18.604;2022-08-20T03:11:21;23.88;;;16.05;;
17239;SDS011;9943;54.378;18.604;2022-08-20T03:13:58;16.17;;;14.57;;
17239;SDS011;9943;54.378;18.604;2022-08-20T03:16:30;21.35;;;16.60;;
17239;SDS011;9943;54.378;18.604;2022-08-20T03:19:00;16.73;;;14.35;;
17239;SDS011;9943;54.378;18.604;2022-08-20T03:21:30;16.50;;;14.43;;
17239;SDS011;9943;54.378;18.604;2022-08-20T03:23:58;16.38;;;14.77;;
17239;SDS011;9943;54.378;18.604;2022-08-20T03:26:29;18.95;;;15.13;;
17239;SDS011;9943;54.378;18.604;2022-08-20T03:29:07;17.45;;;15.32;;
17239;SDS011;9943;54.378;18.604;2022-08-20T03:31:35;17.70;;;14.38;;
17239;SDS011;9943;54.378;18.604;2022-08-20T03:34:03;26.38;;;14.52;;
17239;SDS011;9943;54.378;18.604;2022-08-20T03:36:33;15.02;;;13.35;;
17239;SDS011;9943;54.378;18.604;2022-08-20T03:39:07;15.40;;;13.48;;
17239;SDS011;9943;54.378;18.604;2022-08-20T03:41:40;14.90;;;13.40;;
17239;SDS011;9943;54.378;18.604;2022-08-20T03:44:15;15.40;;;13.07;;
17239;SDS011;9943;54.378;18.604;2022-08-20T03:46:47;15.90;;;13.95;;
17239;SDS011;9943;54.378;18.604;2022-08-20T03:49:18;19.85;;;14.23;;
17239;SDS011;9943;54.378;18.604;2022-08-20T03:51:48;14.82;;;13.32;;
17239;SDS011;9943;54.378;18.604;2022-08-20T03:54:16;16.90;;;14.05;;
17239;SDS011;9943;54.378;18.604;2022-08-20T03:56:59;15.23;;;13.50;;
17239;SDS011;9943;54.378;18.604;2022-08-20T03:59:30;15.85;;;12.50;;
17239;SDS011;9943;54.378;18.604;2022-08-20T04:02:05;15.75;;;13.10;;
17239;SDS011;9943;54.378;18.604;2022-08-20T04:04:36;16.85;;;13.13;;
17239;SDS011;9943;54.378;18.604;2022-08-20T04:07:09;13.38;;;11.98;;
17239;SDS011;9943;54.378;18.604;2022-08-20T04:09:47;14.43;;;12.93;;
17239;SDS011;9943;54.378;18.604;2022-08-20T04:12:16;15.07;;;13.20;;
17239;SDS011;9943;54.378;18.604;2022-08-20T04:14:47;19.48;;;12.40;;
17239;SDS011;9943;54.378;18.604;2022-08-20T04:17:20;17.35;;;12.50;;
17239;SDS011;9943;54.378;18.604;2022-08-20T04:19:49;14.65;;;12.80;;
17239;SDS011;9943;54.378;18.604;2022-08-20T04:22:19;13.95;;;12.50;;
17239;SDS011;9943;54.378;18.604;2022-08-20T04:24:57;16.25;;;12.40;;
17239;SDS011;9943;54.378;18.604;2022-08-20T04:27:29;15.13;;;12.05;;
17239;SDS011;9943;54.378;18.604;2022-08-20T04:30:02;15.57;;;11.88;;
17239;SDS011;9943;54.378;18.604;2022-08-20T04:32:31;15.23;;;12.65;;
17239;SDS011;9943;54.378;18.604;2022-08-20T04:35:05;16.05;;;12.55;;
17239;SDS011;9943;54.378;18.604;2022-08-20T04:37:37;17.65;;;12.70;;
17239;SDS011;9943;54.378;18.604;2022-08-20T04:40:12;16.25;;;13.57;;
17239;SDS011;9943;54.378;18.604;2022-08-20T04:42:59;17.23;;;13.88;;
17239;SDS011;9943;54.378;18.604;2022-08-20T04:45:32;15.93;;;12.60;;
17239;SDS011;9943;54.378;18.604;2022-08-20T04:48:12;23.60;;;13.95;;
17239;SDS011;9943;54.378;18.604;2022-08-20T04:50:53;17.17;;;13.75;;
17239;SDS011;9943;54.378;18.604;2022-08-20T04:53:30;23.60;;;15.68;;
17239;SDS011;9943;54.378;18.604;2022-08-20T04:55:59;16.52;;;14.77;;
17239;SDS011;9943;54.378;18.604;2022-08-20T04:58:31;16.48;;;14.52;;
17239;SDS011;9943;54.378;18.604;2022-08-20T05:01:07;20.85;;;15.73;;
17239;SDS011;9943;54.378;18.604;2022-08-20T05:03:37;18.50;;;16.52;;
17239;SDS011;9943;54.378;18.604;2022-08-20T05:06:09;22.23;;;16.40;;
17239;SDS011;9943;54.378;18.604;2022-08-20T05:08:47;19.00;;;16.98;;
17239;SDS011;9943;54.378;18.604;2022-08-20T05:11:27;19.90;;;17.80;;
17239;SDS011;9943;54.378;18.604;2022-08-20T05:13:56;19.52;;;17.65;;
17239;SDS011;9943;54.378;18.604;2022-08-20T05:16:28;22.23;;;18.10;;
17239;SDS011;9943;54.378;18.604;2022-08-20T05:19:10;20.80;;;18.60;;
17239;SDS011;9943;54.378;18.604;2022-08-20T05:21:43;22.50;;;19.25;;
17239;SDS011;9943;54.378;18.604;2022-08-20T05:24:13;22.20;;;19.77;;
17239;SDS011;9943;54.378;18.604;2022-08-20T05:26:58;21.55;;;19.50;;
17239;SDS011;9943;54.378;18.604;2022-08-20T05:29:36;22.23;;;19.95;;
17239;SDS011;9943;54.378;18.604;2022-08-20T05:32:17;25.23;;;21.48;;
17239;SDS011;9943;54.378;18.604;2022-08-20T05:34:54;20.17;;;18.02;;
17239;SDS011;9943;54.378;18.604;2022-08-20T05:37:26;21.83;;;16.17;;
17239;SDS011;9943;54.378;18.604;2022-08-20T05:40:06;17.33;;;15.52;;
17239;SDS011;9943;54.378;18.604;2022-08-20T05:42:41;22.25;;;19.88;;
17239;SDS011;9943;54.378;18.604;2022-08-20T05:45:13;19.85;;;17.35;;
17239;SDS011;9943;54.378;18.604;2022-08-20T05:48:01;22.02;;;19.92;;
17239;SDS011;9943;54.378;18.604;2022-08-20T05:50:38;21.63;;;19.52;;
17239;SDS011;9943;54.378;18.604;2022-08-20T05:53:08;21.42;;;19.15;;
17239;SDS011;9943;54.378;18.604;2022-08-20T05:55:46;17.08;;;14.70;;
17239;SDS011;9943;54.378;18.604;2022-08-20T06:01:10;16.20;;;14.65;;
17239;SDS011;9943;54.378;18.604;2022-08-20T06:03:41;18.40;;;16.48;;
17239;SDS011;9943;54.378;18.604;2022-08-20T06:06:28;21.60;;;16.98;;
17239;SDS011;9943;54.378;18.604;2022-08-20T06:08:59;20.02;;;17.42;;
17239;SDS011;9943;54.378;18.604;2022-08-20T06:11:29;23.15;;;18.10;;
17239;SDS011;9943;54.378;18.604;2022-08-20T06:14:02;18.88;;;16.75;;
17239;SDS011;9943;54.378;18.604;2022-08-20T06:16:42;24.10;;;18.27;;
17239;SDS011;9943;54.378;18.604;2022-08-20T06:19:35;23.60;;;19.83;;
17239;SDS011;9943;54.378;18.604;2022-08-20T06:22:06;22.65;;;19.73;;
17239;SDS011;9943;54.378;18.604;2022-08-20T06:24:37;22.55;;;20.33;;
17239;SDS011;9943;54.378;18.604;2022-08-20T06:27:11;24.75;;;21.80;;
17239;SDS011;9943;54.378;18.604;2022-08-20T06:30:02;25.58;;;22.45;;
17239;SDS011;9943;54.378;18.604;2022-08-20T06:32:38;27.63;;;23.90;;
17239;SDS011;9943;54.378;18.604;2022-08-20T06:38:12;28.17;;;25.27;;
17239;SDS011;9943;54.378;18.604;2022-08-20T06:40:43;28.65;;;24.27;;
17239;SDS011;9943;54.378;18.604;2022-08-20T06:44:01;26.92;;;24.35;;
17239;SDS011;9943;54.378;18.604;2022-08-20T06:46:50;30.85;;;26.60;;
17239;SDS011;9943;54.378;18.604;2022-08-20T06:49:21;29.40;;;26.48;;
17239;SDS011;9943;54.378;18.604;2022-08-20T06:52:15;28.90;;;25.80;;
17239;SDS011;9943;54.378;18.604;2022-08-20T06:58:05;29.58;;;26.08;;
17239;SDS011;9943;54.378;18.604;2022-08-20T07:00:38;28.55;;;25.70;;
17239;SDS011;9943;54.378;18.604;2022-08-20T07:03:28;30.90;;;26.50;;
17239;SDS011;9943;54.378;18.604;2022-08-20T07:06:08;30.17;;;26.58;;
17239;SDS011;9943;54.378;18.604;2022-08-20T07:08:55;29.02;;;25.98;;
17239;SDS011;9943;54.378;18.604;2022-08-20T07:11:25;33.97;;;25.75;;
17239;SDS011;9943;54.378;18.604;2022-08-20T07:14:16;26.95;;;24.15;;
17239;SDS011;9943;54.378;18.604;2022-08-20T07:16:51;25.65;;;22.95;;
17239;SDS011;9943;54.378;18.604;2022-08-20T07:19:20;23.67;;;21.27;;
17239;SDS011;9943;54.378;18.604;2022-08-20T07:25:02;23.58;;;21.08;;
17239;SDS011;9943;54.378;18.604;2022-08-20T07:27:35;21.35;;;19.05;;
17239;SDS011;9943;54.378;18.604;2022-08-20T07:30:26;21.92;;;18.65;;
17239;SDS011;9943;54.378;18.604;2022-08-20T07:33:12;23.55;;;17.17;;
17239;SDS011;9943;54.378;18.604;2022-08-20T07:35:49;18.42;;;15.13;;
17239;SDS011;9943;54.378;18.604;2022-08-20T07:38:19;20.77;;;14.65;;
17239;SDS011;9943;54.378;18.604;2022-08-20T07:40:56;21.27;;;13.90;;
17239;SDS011;9943;54.378;18.604;2022-08-20T07:43:27;16.92;;;12.50;;
17239;SDS011;9943;54.378;18.604;2022-08-20T07:45:58;20.02;;;12.57;;
17239;SDS011;9943;54.378;18.604;2022-08-20T07:48:34;14.02;;;11.45;;
17239;SDS011;9943;54.378;18.604;2022-08-20T07:51:06;15.82;;;10.95;;
17239;SDS011;9943;54.378;18.604;2022-08-20T07:53:38;19.83;;;10.82;;
17239;SDS011;9943;54.378;18.604;2022-08-20T07:56:10;13.52;;;10.25;;
17239;SDS011;9943;54.378;18.604;2022-08-20T07:58:40;22.63;;;10.20;;
17239;SDS011;9943;54.378;18.604;2022-08-20T08:01:24;16.92;;;10.93;;
17239;SDS011;9943;54.378;18.604;2022-08-20T08:03:55;13.85;;;10.50;;
17239;SDS011;9943;54.378;18.604;2022-08-20T08:06:38;17.35;;;9.77;;
17239;SDS011;9943;54.378;18.604;2022-08-20T08:09:26;15.70;;;10.52;;
17239;SDS011;9943;54.378;18.604;2022-08-20T08:12:02;14.23;;;9.85;;
17239;SDS011;9943;54.378;18.604;2022-08-20T08:14:32;14.50;;;10.30;;
17239;SDS011;9943;54.378;18.604;2022-08-20T08:20:00;15.50;;;10.88;;
17239;SDS011;9943;54.378;18.604;2022-08-20T08:22:31;15.45;;;11.48;;
17239;SDS011;9943;54.378;18.604;2022-08-20T08:25:01;14.30;;;10.23;;
17239;SDS011;9943;54.378;18.604;2022-08-20T08:27:31;12.68;;;10.30;;
17239;SDS011;9943;54.378;18.604;2022-08-20T08:30:02;13.82;;;10.32;;
17239;SDS011;9943;54.378;18.604;2022-08-20T08:32:39;16.90;;;11.82;;
17239;SDS011;9943;54.378;18.604;2022-08-20T08:35:29;14.20;;;9.90;;
17239;SDS011;9943;54.378;18.604;2022-08-20T08:37:58;14.18;;;11.38;;
17239;SDS011;9943;54.378;18.604;2022-08-20T08:40:29;15.27;;;10.57;;
17239;SDS011;9943;54.378;18.604;2022-08-20T08:43:01;14.43;;;11.20;;
17239;SDS011;9943;54.378;18.604;2022-08-20T08:45:33;17.38;;;11.80;;
17239;SDS011;9943;54.378;18.604;2022-08-20T08:48:09;15.32;;;11.18;;
17239;SDS011;9943;54.378;18.604;2022-08-20T08:50:43;24.30;;;13.40;;
17239;SDS011;9943;54.378;18.604;2022-08-20T08:53:15;14.55;;;13.00;;
17239;SDS011;9943;54.378;18.604;2022-08-20T08:55:51;17.33;;;13.98;;
17239;SDS011;9943;54.378;18.604;2022-08-20T08:58:21;16.23;;;13.45;;
17239;SDS011;9943;54.378;18.604;2022-08-20T09:00:51;16.98;;;13.55;;
17239;SDS011;9943;54.378;18.604;2022-08-20T09:03:22;16.67;;;13.43;;
17239;SDS011;9943;54.378;18.604;2022-08-20T09:06:05;15.73;;;13.70;;
17239;SDS011;9943;54.378;18.604;2022-08-20T09:08:35;14.57;;;12.15;;
17239;SDS011;9943;54.378;18.604;2022-08-20T09:11:07;14.23;;;12.48;;
17239;SDS011;9943;54.378;18.604;2022-08-20T09:13:44;16.63;;;13.13;;
17239;SDS011;9943;54.378;18.604;2022-08-20T09:16:13;14.88;;;12.13;;
17239;SDS011;9943;54.378;18.604;2022-08-20T09:18:48;15.80;;;12.73;;
17239;SDS011;9943;54.378;18.604;2022-08-20T09:21:34;12.63;;;11.38;;
17239;SDS011;9943;54.378;18.604;2022-08-20T09:24:06;14.18;;;12.38;;
17239;SDS011;9943;54.378;18.604;2022-08-20T09:26:37;13.80;;;11.60;;
17239;SDS011;9943;54.378;18.604;2022-08-20T09:29:07;13.10;;;11.73;;
17239;SDS011;9943;54.378;18.604;2022-08-20T09:31:42;13.73;;;11.23;;
17239;SDS011;9943;54.378;18.604;2022-08-20T09:34:19;13.88;;;11.15;;
17239;SDS011;9943;54.378;18.604;2022-08-20T09:40:10;14.77;;;10.77;;
17239;SDS011;9943;54.378;18.604;2022-08-20T09:42:47;11.57;;;10.20;;
17239;SDS011;9943;54.378;18.604;2022-08-20T09:45:22;17.80;;;10.10;;
17239;SDS011;9943;54.378;18.604;2022-08-20T09:48:01;11.82;;;9.30;;
17239;SDS011;9943;54.378;18.604;2022-08-20T09:50:45;15.60;;;9.85;;
17239;SDS011;9943;54.378;18.604;2022-08-20T09:53:19;12.65;;;9.50;;
17239;SDS011;9943;54.378;18.604;2022-08-20T09:58:43;11.98;;;10.02;;
17239;SDS011;9943;54.378;18.604;2022-08-20T10:01:28;11.48;;;10.18;;
17239;SDS011;9943;54.378;18.604;2022-08-20T10:04:02;14.65;;;11.07;;
17239;SDS011;9943;54.378;18.604;2022-08-20T10:06:37;15.50;;;10.38;;
17239;SDS011;9943;54.378;18.604;2022-08-20T10:09:09;14.32;;;10.15;;
17239;SDS011;9943;54.378;18.604;2022-08-20T10:11:38;13.13;;;10.32;;
17239;SDS011;9943;54.378;18.604;2022-08-20T10:14:09;15.27;;;10.35;;
17239;SDS011;9943;54.378;18.604;2022-08-20T10:16:40;11.55;;;10.45;;
17239;SDS011;9943;54.378;18.604;2022-08-20T10:19:10;12.13;;;10.93;;
17239;SDS011;9943;54.378;18.604;2022-08-20T10:21:39;13.38;;;10.32;;
17239;SDS011;9943;54.378;18.604;2022-08-20T10:24:13;14.52;;;11.70;;
17239;SDS011;9943;54.378;18.604;2022-08-20T10:26:50;12.80;;;11.50;;
17239;SDS011;9943;54.378;18.604;2022-08-20T10:29:42;16.48;;;10.77;;
17239;SDS011;9943;54.378;18.604;2022-08-20T10:32:13;13.85;;;11.07;;
17239;SDS011;9943;54.378;18.604;2022-08-20T10:34:46;14.73;;;11.80;;
17239;SDS011;9943;54.378;18.604;2022-08-20T10:37:15;13.20;;;11.80;;
17239;SDS011;9943;54.378;18.604;2022-08-20T10:39:47;13.63;;;11.18;;
17239;SDS011;9943;54.378;18.604;2022-08-20T10:42:17;15.13;;;11.48;;
17239;SDS011;9943;54.378;18.604;2022-08-20T10:44:48;12.85;;;10.80;;
17239;SDS011;9943;54.378;18.604;2022-08-20T10:47:19;14.85;;;11.55;;
17239;SDS011;9943;54.378;18.604;2022-08-20T10:49:52;23.40;;;16.00;;
17239;SDS011;9943;54.378;18.604;2022-08-20T10:52:21;11.60;;;10.05;;
17239;SDS011;9943;54.378;18.604;2022-08-20T10:54:53;16.05;;;11.32;;
17239;SDS011;9943;54.378;18.604;2022-08-20T10:57:24;11.00;;;9.95;;
17239;SDS011;9943;54.378;18.604;2022-08-20T10:59:58;11.30;;;10.07;;
17239;SDS011;9943;54.378;18.604;2022-08-20T11:05:08;15.25;;;10.15;;
17239;SDS011;9943;54.378;18.604;2022-08-20T11:07:37;13.20;;;10.05;;
17239;SDS011;9943;54.378;18.604;2022-08-20T11:10:10;12.23;;;10.93;;
17239;SDS011;9943;54.378;18.604;2022-08-20T11:12:39;12.60;;;10.52;;
17239;SDS011;9943;54.378;18.604;2022-08-20T11:15:22;18.98;;;10.55;;
17239;SDS011;9943;54.378;18.604;2022-08-20T11:17:53;12.82;;;10.90;;
17239;SDS011;9943;54.378;18.604;2022-08-20T11:20:30;13.18;;;10.02;;
17239;SDS011;9943;54.378;18.604;2022-08-20T11:23:07;13.63;;;11.02;;
17239;SDS011;9943;54.378;18.604;2022-08-20T11:25:38;12.60;;;9.98;;
17239;SDS011;9943;54.378;18.604;2022-08-20T11:28:16;12.52;;;10.75;;
17239;SDS011;9943;54.378;18.604;2022-08-20T11:30:46;12.05;;;10.80;;
17239;SDS011;9943;54.378;18.604;2022-08-20T11:33:22;11.88;;;10.77;;
17239;SDS011;9943;54.378;18.604;2022-08-20T11:35:52;14.15;;;10.27;;
17239;SDS011;9943;54.378;18.604;2022-08-20T11:38:35;12.25;;;11.00;;
17239;SDS011;9943;54.378;18.604;2022-08-20T11:41:05;14.57;;;11.30;;
17239;SDS011;9943;54.378;18.604;2022-08-20T11:43:37;13.57;;;10.45;;
17239;SDS011;9943;54.378;18.604;2022-08-20T11:46:31;15.73;;;11.43;;
17239;SDS011;9943;54.378;18.604;2022-08-20T11:49:02;13.27;;;11.88;;
17239;SDS011;9943;54.378;18.604;2022-08-20T11:51:32;13.63;;;11.38;;
17239;SDS011;9943;54.378;18.604;2022-08-20T11:54:03;13.85;;;11.38;;
17239;SDS011;9943;54.378;18.604;2022-08-20T11:56:31;13.43;;;11.80;;
17239;SDS011;9943;54.378;18.604;2022-08-20T11:59:07;16.38;;;11.13;;
17239;SDS011;9943;54.378;18.604;2022-08-20T12:01:48;12.15;;;10.80;;
17239;SDS011;9943;54.378;18.604;2022-08-20T12:04:19;12.60;;;11.10;;
17239;SDS011;9943;54.378;18.604;2022-08-20T12:06:49;13.95;;;10.50;;
17239;SDS011;9943;54.378;18.604;2022-08-20T12:09:19;12.85;;;11.55;;
17239;SDS011;9943;54.378;18.604;2022-08-20T12:11:55;12.57;;;10.25;;
17239;SDS011;9943;54.378;18.604;2022-08-20T12:17:08;13.40;;;12.02;;
17239;SDS011;9943;54.378;18.604;2022-08-20T12:19:47;16.30;;;12.50;;
17239;SDS011;9943;54.378;18.604;2022-08-20T12:22:18;13.93;;;12.25;;
17239;SDS011;9943;54.378;18.604;2022-08-20T12:24:52;18.48;;;11.93;;
17239;SDS011;9943;54.378;18.604;2022-08-20T12:27:20;16.33;;;13.02;;
17239;SDS011;9943;54.378;18.604;2022-08-20T12:30:06;20.20;;;18.15;;
17239;SDS011;9943;54.378;18.604;2022-08-20T12:32:43;22.23;;;19.95;;
17239;SDS011;9943;54.378;18.604;2022-08-20T12:35:12;25.25;;;22.58;;
17239;SDS011;9943;54.378;18.604;2022-08-20T12:37:55;25.85;;;21.20;;
17239;SDS011;9943;54.378;18.604;2022-08-20T12:40:29;27.25;;;24.35;;
17239;SDS011;9943;54.378;18.604;2022-08-20T12:43:00;28.23;;;25.30;;
17239;SDS011;9943;54.378;18.604;2022-08-20T12:45:31;28.95;;;26.00;;
17239;SDS011;9943;54.378;18.604;2022-08-20T12:48:09;27.90;;;25.08;;
17239;SDS011;9943;54.378;18.604;2022-08-20T12:50:40;28.25;;;25.08;;
17239;SDS011;9943;54.378;18.604;2022-08-20T12:53:12;30.25;;;26.48;;
17239;SDS011;9943;54.378;18.604;2022-08-20T12:55:45;27.50;;;24.70;;
17239;SDS011;9943;54.378;18.604;2022-08-20T12:58:15;28.27;;;25.30;;
17239;SDS011;9943;54.378;18.604;2022-08-20T13:00:50;29.90;;;26.77;;
17239;SDS011;9943;54.378;18.604;2022-08-20T13:03:46;29.70;;;24.95;;
17239;SDS011;9943;54.378;18.604;2022-08-20T13:06:17;30.00;;;26.85;;
17239;SDS011;9943;54.378;18.604;2022-08-20T13:09:00;29.30;;;26.50;;
17239;SDS011;9943;54.378;18.604;2022-08-20T13:11:30;32.10;;;28.52;;
17239;SDS011;9943;54.378;18.604;2022-08-20T13:14:04;33.67;;;30.08;;
17239;SDS011;9943;54.378;18.604;2022-08-20T13:16:52;39.30;;;31.45;;
17239;SDS011;9943;54.378;18.604;2022-08-20T13:19:28;35.53;;;29.55;;
17239;SDS011;9943;54.378;18.604;2022-08-20T13:22:01;35.22;;;31.45;;
17239;SDS011;9943;54.378;18.604;2022-08-20T13:24:32;43.55;;;32.95;;
17239;SDS011;9943;54.378;18.604;2022-08-20T13:27:05;41.63;;;32.63;;
17239;SDS011;9943;54.378;18.604;2022-08-20T13:32:28;47.65;;;36.63;;
17239;SDS011;9943;54.378;18.604;2022-08-20T13:38:51;38.25;;;30.00;;
17239;SDS011;9943;54.378;18.604;2022-08-20T13:41:30;39.50;;;32.28;;
17239;SDS011;9943;54.378;18.604;2022-08-20T13:47:33;41.85;;;32.35;;
17239;SDS011;9943;54.378;18.604;2022-08-20T13:50:33;42.67;;;32.72;;
17239;SDS011;9943;54.378;18.604;2022-08-20T13:53:16;42.70;;;33.35;;
17239;SDS011;9943;54.378;18.604;2022-08-20T13:58:58;41.28;;;31.67;;
17239;SDS011;9943;54.378;18.604;2022-08-20T14:01:38;40.88;;;30.45;;
17239;SDS011;9943;54.378;18.604;2022-08-20T14:04:10;34.63;;;27.67;;
17239;SDS011;9943;54.378;18.604;2022-08-20T14:09:39;35.83;;;27.05;;
17239;SDS011;9943;54.378;18.604;2022-08-20T14:12:26;39.88;;;28.13;;
17239;SDS011;9943;54.378;18.604;2022-08-20T14:15:24;35.03;;;26.50;;
17239;SDS011;9943;54.378;18.604;2022-08-20T14:18:14;31.15;;;20.33;;
17239;SDS011;9943;54.378;18.604;2022-08-20T14:20:53;33.10;;;21.10;;
17239;SDS011;9943;54.378;18.604;2022-08-20T14:23:35;30.98;;;21.38;;
17239;SDS011;9943;54.378;18.604;2022-08-20T14:26:18;29.88;;;23.15;;
17239;SDS011;9943;54.378;18.604;2022-08-20T14:29:21;36.75;;;24.10;;
17239;SDS011;9943;54.378;18.604;2022-08-20T14:41:14;36.90;;;27.45;;
17239;SDS011;9943;54.378;18.604;2022-08-20T14:44:07;33.60;;;26.40;;
17239;SDS011;9943;54.378;18.604;2022-08-20T14:46:38;33.63;;;27.15;;
17239;SDS011;9943;54.378;18.604;2022-08-20T14:49:23;34.03;;;27.73;;
17239;SDS011;9943;54.378;18.604;2022-08-20T14:52:24;46.75;;;34.22;;
17239;SDS011;9943;54.378;18.604;2022-08-20T14:54:58;34.00;;;26.98;;
17239;SDS011;9943;54.378;18.604;2022-08-20T15:13:02;29.92;;;23.83;;
17239;SDS011;9943;54.378;18.604;2022-08-20T15:15:45;24.95;;;22.23;;
17239;SDS011;9943;54.378;18.604;2022-08-20T15:18:18;28.75;;;23.90;;
17239;SDS011;9943;54.378;18.604;2022-08-20T15:21:09;30.00;;;23.90;;
17239;SDS011;9943;54.378;18.604;2022-08-20T15:24:01;28.95;;;22.90;;
17239;SDS011;9943;54.378;18.604;2022-08-20T15:27:11;27.60;;;22.25;;
17239;SDS011;9943;54.378;18.604;2022-08-20T15:29:45;24.27;;;21.73;;
17239;SDS011;9943;54.378;18.604;2022-08-20T15:32:27;25.92;;;21.75;;
17239;SDS011;9943;54.378;18.604;2022-08-20T15:35:10;27.67;;;22.10;;
17239;SDS011;9943;54.378;18.604;2022-08-20T15:37:44;28.27;;;21.45;;
17239;SDS011;9943;54.378;18.604;2022-08-20T15:40:14;25.27;;;22.67;;
17239;SDS011;9943;54.378;18.604;2022-08-20T15:42:45;26.88;;;21.65;;
17239;SDS011;9943;54.378;18.604;2022-08-20T15:45:33;27.90;;;22.92;;
17239;SDS011;9943;54.378;18.604;2022-08-20T15:48:07;26.90;;;21.88;;
17239;SDS011;9943;54.378;18.604;2022-08-20T15:50:43;29.30;;;22.58;;
17239;SDS011;9943;54.378;18.604;2022-08-20T15:53:20;25.48;;;21.30;;
17239;SDS011;9943;54.378;18.604;2022-08-20T15:55:55;23.52;;;21.08;;
17239;SDS011;9943;54.378;18.604;2022-08-20T15:58:34;26.60;;;21.08;;
17239;SDS011;9943;54.378;18.604;2022-08-20T16:01:29;25.40;;;20.98;;
17239;SDS011;9943;54.378;18.604;2022-08-20T16:04:07;24.20;;;21.05;;
17239;SDS011;9943;54.378;18.604;2022-08-20T16:06:56;21.50;;;19.15;;
17239;SDS011;9943;54.378;18.604;2022-08-20T16:09:33;24.75;;;20.58;;
17239;SDS011;9943;54.378;18.604;2022-08-20T16:12:08;24.73;;;20.38;;
17239;SDS011;9943;54.378;18.604;2022-08-20T16:14:38;22.85;;;20.13;;
17239;SDS011;9943;54.378;18.604;2022-08-20T16:20:06;22.02;;;18.83;;